Time;durP1;ratioP1;P1;durP2;ratioP2;P2;SDS_P1;SDS_P2;PMS_P1;PMS_P2;Temp;Humidity;BMP_temperature;BMP_pressure;BME280_temperature;BME280_humidity;BME280_pressure;Samples;Min_cycle;Max_cycle;Signal;HPM_P1;HPM_P2
2023/04/23 00:00:37;;;;;;;3.83;0.90;;;;;;;;;;5007800;28;20052;-54
2023/04/23 00:03:09;;;;;;;3.22;1.10;;;;;;;;;;5010816;28;20060;-53
2023/04/23 00:05:36;;;;;;;2.42;0.77;;;;;;;;;;5008827;28;20517;-55
2023/04/23 00:08:03;;;;;;;5.50;1.10;;;;;;;;;;5010037;28;20045;-51
2023/04/23 00:10:30;;;;;;;3.00;0.90;;;;;;;;;;5006826;28;20041;-57
2023/04/23 00:12:56;;;;;;;4.38;1.10;;;;;;;;;;5009057;28;20450;-55
2023/04/23 00:15:23;;;;;;;3.33;0.90;;;;;;;;;;5009125;28;20045;-54
2023/04/23 00:17:50;;;;;;;5.70;1.10;;;;;;;;;;5007656;28;20347;-55
2023/04/23 00:20:16;;;;;;;4.72;1.77;;;;;;;;;;5009271;28;20041;-58
2023/04/23 00:22:43;;;;;;;3.97;1.10;;;;;;;;;;5006676;28;20045;-55
2023/04/23 00:25:10;;;;;;;5.68;2.15;;;;;;;;;;5023504;28;20033;-59
2023/04/23 00:27:37;;;;;;;4.55;1.75;;;;;;;;;;5008921;28;20044;-61
2023/04/23 00:30:04;;;;;;;6.10;1.85;;;;;;;;;;5009025;28;20385;-63
2023/04/23 00:32:31;;;;;;;4.43;1.52;;;;;;;;;;5006568;28;20513;-63
2023/04/23 00:34:58;;;;;;;3.25;1.15;;;;;;;;;;5023176;28;20039;-60
2023/04/23 00:37:24;;;;;;;5.53;1.20;;;;;;;;;;5005881;28;20052;-64
2023/04/23 00:39:51;;;;;;;6.03;1.05;;;;;;;;;;5007701;28;20053;-59
2023/04/23 00:42:18;;;;;;;2.80;1.10;;;;;;;;;;5006754;28;20045;-60
2023/04/23 00:44:44;;;;;;;3.05;1.10;;;;;;;;;;5006867;28;20139;-58
2023/04/23 00:47:11;;;;;;;7.55;1.20;;;;;;;;;;5007453;28;20034;-60
2023/04/23 00:49:38;;;;;;;3.53;1.08;;;;;;;;;;5007197;28;20069;-56
2023/04/23 00:52:05;;;;;;;3.45;1.15;;;;;;;;;;5019529;28;20064;-57
2023/04/23 00:54:32;;;;;;;2.95;1.05;;;;;;;;;;5007172;28;20038;-57
2023/04/23 00:56:59;;;;;;;2.88;1.00;;;;;;;;;;5007352;28;20047;-57
2023/04/23 00:59:26;;;;;;;3.13;0.93;;;;;;;;;;5020516;28;20488;-55
2023/04/23 01:01:53;;;;;;;5.88;1.60;;;;;;;;;;5005932;28;20048;-57
2023/04/23 01:04:21;;;;;;;4.70;1.33;;;;;;;;;;5012134;28;20152;-59
2023/04/23 01:06:48;;;;;;;6.75;1.20;;;;;;;;;;5006921;28;20129;-63
2023/04/23 01:09:17;;;;;;;3.50;1.20;;;;;;;;;;5020992;28;20045;-52
2023/04/23 01:11:44;;;;;;;4.30;1.30;;;;;;;;;;5019260;28;20643;-56
2023/04/23 01:14:11;;;;;;;5.03;1.65;;;;;;;;;;5021713;28;20529;-58
2023/04/23 01:16:37;;;;;;;3.80;1.30;;;;;;;;;;5007736;28;20042;-54
2023/04/23 01:19:06;;;;;;;4.78;1.30;;;;;;;;;;5008113;28;20030;-57
2023/04/23 01:21:34;;;;;;;6.47;1.27;;;;;;;;;;5006168;28;20453;-51
2023/04/23 01:24:02;;;;;;;3.28;1.10;;;;;;;;;;5011359;28;20104;-54
2023/04/23 01:26:28;;;;;;;4.55;1.30;;;;;;;;;;5026173;28;20390;-54
2023/04/23 01:28:55;;;;;;;5.22;1.40;;;;;;;;;;5011496;28;20038;-54
2023/04/23 01:31:22;;;;;;;4.97;1.30;;;;;;;;;;5024864;28;20108;-55
2023/04/23 01:33:50;;;;;;;5.53;1.35;;;;;;;;;;5010552;28;20034;-57
2023/04/23 01:36:18;;;;;;;3.53;1.15;;;;;;;;;;5028368;28;20061;-54
2023/04/23 01:38:45;;;;;;;3.38;1.13;;;;;;;;;;5012697;28;20042;-57
2023/04/23 01:41:11;;;;;;;4.00;1.40;;;;;;;;;;5026296;28;20054;-54
2023/04/23 01:43:39;;;;;;;3.78;1.35;;;;;;;;;;5012470;28;20053;-56
2023/04/23 01:46:05;;;;;;;4.50;1.52;;;;;;;;;;5013403;28;20144;-58
2023/04/23 01:48:32;;;;;;;9.45;3.95;;;;;;;;;;5012674;28;20773;-63
2023/04/23 01:51:00;;;;;;;4.90;1.38;;;;;;;;;;5028257;28;20379;-57
2023/04/23 01:53:27;;;;;;;4.70;1.52;;;;;;;;;;5012273;28;20046;-62
2023/04/23 01:55:55;;;;;;;5.35;1.50;;;;;;;;;;5012412;28;20038;-67
2023/04/23 01:58:22;;;;;;;4.05;1.52;;;;;;;;;;5018779;28;20147;-56
2023/04/23 02:00:52;;;;;;;4.15;1.50;;;;;;;;;;5020747;28;20108;-53
2023/04/23 02:03:18;;;;;;;4.03;1.48;;;;;;;;;;5026016;28;20509;-55
2023/04/23 02:05:45;;;;;;;3.50;1.30;;;;;;;;;;5010998;28;20045;-59
2023/04/23 02:08:12;;;;;;;5.13;1.45;;;;;;;;;;5010385;28;20034;-57
2023/04/23 02:10:39;;;;;;;8.70;2.35;;;;;;;;;;5008639;28;20092;-57
2023/04/23 02:13:05;;;;;;;6.82;2.13;;;;;;;;;;5010886;28;20073;-55
2023/04/23 02:15:32;;;;;;;4.18;1.90;;;;;;;;;;5010207;28;20065;-57
2023/04/23 02:17:59;;;;;;;3.95;1.80;;;;;;;;;;5011225;28;20045;-66
2023/04/23 02:20:26;;;;;;;11.38;2.60;;;;;;;;;;5010261;28;20497;-65
2023/04/23 02:22:52;;;;;;;7.53;2.17;;;;;;;;;;5009793;28;20052;-62
2023/04/23 02:25:20;;;;;;;6.03;2.67;;;;;;;;;;5010882;28;20045;-64
2023/04/23 02:27:48;;;;;;;4.43;2.15;;;;;;;;;;5007669;28;20072;-62
2023/04/23 02:30:15;;;;;;;6.47;2.05;;;;;;;;;;5009412;28;20158;-62
2023/04/23 02:32:42;;;;;;;8.80;2.25;;;;;;;;;;5009669;28;20986;-63
2023/04/23 02:35:09;;;;;;;8.18;2.63;;;;;;;;;;5011614;28;20152;-60
2023/04/23 02:37:37;;;;;;;7.72;2.15;;;;;;;;;;5009840;28;20038;-59
2023/04/23 02:40:06;;;;;;;6.03;2.40;;;;;;;;;;5006661;28;20108;-58
2023/04/23 02:42:33;;;;;;;7.50;2.40;;;;;;;;;;5023636;28;20052;-61
2023/04/23 02:45:00;;;;;;;4.97;2.30;;;;;;;;;;5026181;28;20045;-59
2023/04/23 02:47:27;;;;;;;7.95;2.78;;;;;;;;;;5024316;28;20033;-59
2023/04/23 02:49:54;;;;;;;6.68;2.70;;;;;;;;;;5010562;28;20099;-60
2023/04/23 02:52:20;;;;;;;6.80;2.75;;;;;;;;;;5010893;28;20045;-61
2023/04/23 02:54:47;;;;;;;5.38;2.53;;;;;;;;;;5025520;28;20039;-61
2023/04/23 02:57:15;;;;;;;5.30;2.60;;;;;;;;;;5025656;28;20034;-61
2023/04/23 02:59:42;;;;;;;12.02;2.65;;;;;;;;;;5009189;28;20041;-62
2023/04/23 03:02:09;;;;;;;10.23;2.63;;;;;;;;;;5011278;28;20453;-62
2023/04/23 03:04:36;;;;;;;7.90;2.88;;;;;;;;;;5023712;28;20101;-56
2023/04/23 03:07:03;;;;;;;8.95;2.72;;;;;;;;;;5011127;28;20106;-55
2023/04/23 03:09:29;;;;;;;6.70;2.83;;;;;;;;;;5006995;28;20789;-56
2023/04/23 03:11:56;;;;;;;6.03;2.50;;;;;;;;;;5009450;28;20099;-56
2023/04/23 03:14:23;;;;;;;6.65;2.90;;;;;;;;;;5010124;28;20407;-55
2023/04/23 03:16:49;;;;;;;6.55;2.92;;;;;;;;;;5011329;28;20051;-57
2023/04/23 03:19:16;;;;;;;11.07;3.30;;;;;;;;;;5008731;28;20092;-60
2023/04/23 03:21:43;;;;;;;5.93;2.67;;;;;;;;;;5009279;28;20045;-55
2023/04/23 03:24:12;;;;;;;11.57;2.53;;;;;;;;;;5009437;28;20045;-54
2023/04/23 03:26:39;;;;;;;8.77;2.90;;;;;;;;;;5007711;28;20046;-54
2023/04/23 03:29:06;;;;;;;8.65;2.90;;;;;;;;;;5010883;28;20049;-55
2023/04/23 03:31:32;;;;;;;10.07;2.75;;;;;;;;;;5008985;28;20147;-55
2023/04/23 03:34:00;;;;;;;6.63;2.63;;;;;;;;;;5010424;28;20036;-55
2023/04/23 03:36:26;;;;;;;7.18;2.60;;;;;;;;;;5010298;28;20030;-55
2023/04/23 03:38:53;;;;;;;4.97;2.47;;;;;;;;;;5008950;28;20448;-55
2023/04/23 03:41:20;;;;;;;4.90;2.60;;;;;;;;;;5008914;28;20048;-58
2023/04/23 03:43:46;;;;;;;7.53;3.25;;;;;;;;;;5009421;28;20196;-54
2023/04/23 03:46:15;;;;;;;6.38;2.92;;;;;;;;;;5008379;28;20403;-53
2023/04/23 03:48:42;;;;;;;5.13;2.50;;;;;;;;;;5008804;28;20053;-55
2023/04/23 03:51:09;;;;;;;5.05;2.45;;;;;;;;;;5009004;28;20038;-55
2023/04/23 03:53:35;;;;;;;5.70;2.50;;;;;;;;;;5007506;28;20046;-59
2023/04/23 03:56:02;;;;;;;8.13;2.70;;;;;;;;;;5010433;28;20047;-56
2023/04/23 03:58:28;;;;;;;5.93;2.70;;;;;;;;;;5008028;28;20149;-56
2023/04/23 04:00:56;;;;;;;5.05;2.55;;;;;;;;;;5008040;28;20049;-57
2023/04/23 04:03:23;;;;;;;5.03;2.70;;;;;;;;;;5006172;28;20057;-56
2023/04/23 04:05:49;;;;;;;6.72;2.75;;;;;;;;;;5007559;28;20573;-58
2023/04/23 04:08:16;;;;;;;7.45;2.75;;;;;;;;;;5008293;28;20042;-59
2023/04/23 04:10:43;;;;;;;5.40;2.58;;;;;;;;;;5008488;28;20041;-57
2023/04/23 04:13:09;;;;;;;6.60;2.67;;;;;;;;;;5008875;28;20221;-57
2023/04/23 04:15:36;;;;;;;6.47;3.08;;;;;;;;;;5006986;28;20125;-58
2023/04/23 04:18:03;;;;;;;9.07;2.70;;;;;;;;;;5009091;28;20494;-55
2023/04/23 04:20:30;;;;;;;5.97;2.80;;;;;;;;;;5021122;28;20511;-55
2023/04/23 04:22:56;;;;;;;6.32;2.58;;;;;;;;;;5008966;28;20091;-60
2023/04/23 04:25:23;;;;;;;6.20;2.55;;;;;;;;;;5007722;28;20152;-57
2023/04/23 04:27:50;;;;;;;6.13;2.75;;;;;;;;;;5006668;28;20041;-56
2023/04/23 04:30:17;;;;;;;8.57;2.70;;;;;;;;;;5008453;28;20042;-57
2023/04/23 04:32:45;;;;;;;6.72;2.80;;;;;;;;;;5007472;28;20546;-59
2023/04/23 04:35:14;;;;;;;8.88;3.30;;;;;;;;;;5008099;28;20179;-57
2023/04/23 04:37:42;;;;;;;5.30;2.70;;;;;;;;;;5007101;28;20116;-56
2023/04/23 04:40:10;;;;;;;7.18;2.95;;;;;;;;;;5007068;28;20148;-54
2023/04/23 04:42:38;;;;;;;8.18;3.60;;;;;;;;;;5006638;28;20376;-55
2023/04/23 04:45:05;;;;;;;7.57;3.20;;;;;;;;;;5007585;28;20061;-57
2023/04/23 04:47:31;;;;;;;6.80;3.00;;;;;;;;;;5006995;28;20049;-57
2023/04/23 04:49:59;;;;;;;13.43;3.53;;;;;;;;;;5007271;28;20458;-54
2023/04/23 04:52:25;;;;;;;11.02;3.30;;;;;;;;;;5006577;28;20141;-56
2023/04/23 04:54:52;;;;;;;7.00;3.38;;;;;;;;;;5007735;28;20624;-55
2023/04/23 04:57:21;;;;;;;8.43;3.50;;;;;;;;;;5006772;28;20048;-56
2023/04/23 04:59:48;;;;;;;7.53;3.03;;;;;;;;;;5006990;28;20030;-56
2023/04/23 05:02:15;;;;;;;7.78;3.00;;;;;;;;;;5007211;28;20151;-57
2023/04/23 05:04:42;;;;;;;8.63;3.35;;;;;;;;;;5007387;28;20046;-56
2023/04/23 05:07:08;;;;;;;6.20;3.25;;;;;;;;;;5008298;28;20045;-57
2023/04/23 05:09:35;;;;;;;8.68;3.67;;;;;;;;;;5005257;28;20042;-60
2023/04/23 05:12:02;;;;;;;9.02;3.80;;;;;;;;;;5006719;28;20414;-58
2023/04/23 05:14:28;;;;;;;10.45;4.15;;;;;;;;;;5005808;28;20095;-56
2023/04/23 05:16:55;;;;;;;6.28;2.90;;;;;;;;;;5007805;28;20913;-54
2023/04/23 05:19:22;;;;;;;8.40;3.47;;;;;;;;;;5006416;28;20089;-58
2023/04/23 05:21:49;;;;;;;8.32;3.00;;;;;;;;;;5007901;28;20041;-55
2023/04/23 05:24:16;;;;;;;7.68;3.40;;;;;;;;;;5021774;28;20126;-57
2023/04/23 05:26:42;;;;;;;5.78;2.80;;;;;;;;;;5006967;28;20048;-56
2023/04/23 05:29:09;;;;;;;7.93;3.20;;;;;;;;;;5006700;28;20471;-58
2023/04/23 05:31:35;;;;;;;6.40;3.20;;;;;;;;;;5008728;28;20037;-59
2023/04/23 05:34:02;;;;;;;9.27;3.80;;;;;;;;;;5007209;28;20037;-55
2023/04/23 05:36:30;;;;;;;7.53;3.42;;;;;;;;;;5007519;28;20805;-55
2023/04/23 05:38:56;;;;;;;9.10;3.70;;;;;;;;;;5006620;28;20033;-57
2023/04/23 05:41:23;;;;;;;8.90;3.67;;;;;;;;;;5006295;28;20045;-56
2023/04/23 05:43:50;;;;;;;9.90;3.95;;;;;;;;;;5009231;28;20510;-53
2023/04/23 05:46:16;;;;;;;7.78;3.55;;;;;;;;;;5022829;28;20038;-55
2023/04/23 05:48:43;;;;;;;6.97;3.45;;;;;;;;;;5006984;28;20105;-58
2023/04/23 05:51:09;;;;;;;6.72;3.53;;;;;;;;;;5010024;28;20096;-58
2023/04/23 05:53:36;;;;;;;9.15;4.00;;;;;;;;;;5007574;28;20848;-58
2023/04/23 05:56:03;;;;;;;10.18;4.10;;;;;;;;;;5008483;28;20064;-56
2023/04/23 05:58:29;;;;;;;7.22;3.50;;;;;;;;;;5007818;28;20128;-56
2023/04/23 06:00:56;;;;;;;8.73;3.80;;;;;;;;;;5007686;28;20049;-58
2023/04/23 06:03:23;;;;;;;6.90;3.42;;;;;;;;;;5007133;28;20053;-57
2023/04/23 06:05:50;;;;;;;7.20;3.65;;;;;;;;;;5008495;28;20796;-54
2023/04/23 06:08:17;;;;;;;7.35;3.72;;;;;;;;;;5007523;28;20045;-56
2023/04/23 06:10:43;;;;;;;5.78;3.53;;;;;;;;;;5003106;28;20041;-55
2023/04/23 06:13:10;;;;;;;6.75;3.45;;;;;;;;;;5011172;28;20041;-56
2023/04/23 06:15:37;;;;;;;9.25;3.90;;;;;;;;;;5010549;28;20076;-54
2023/04/23 06:18:03;;;;;;;7.15;3.50;;;;;;;;;;5028204;28;20406;-54
2023/04/23 06:20:30;;;;;;;6.20;3.35;;;;;;;;;;5010234;28;20045;-55
2023/04/23 06:22:57;;;;;;;7.90;3.53;;;;;;;;;;5011663;28;20038;-56
2023/04/23 06:25:24;;;;;;;7.45;3.47;;;;;;;;;;5010721;28;20067;-55
2023/04/23 06:27:51;;;;;;;9.05;3.55;;;;;;;;;;5011710;28;20042;-55
2023/04/23 06:30:18;;;;;;;6.30;3.28;;;;;;;;;;5013503;28;20143;-57
2023/04/23 06:32:44;;;;;;;7.57;3.78;;;;;;;;;;5014549;28;20065;-57
2023/04/23 06:35:12;;;;;;;10.40;3.83;;;;;;;;;;5010483;28;20029;-55
2023/04/23 06:37:39;;;;;;;9.02;4.18;;;;;;;;;;5009073;28;20484;-56
2023/04/23 06:40:06;;;;;;;7.38;3.78;;;;;;;;;;5011759;28;20081;-57
2023/04/23 06:42:33;;;;;;;7.95;4.05;;;;;;;;;;5009553;28;20037;-55
2023/04/23 06:45:03;;;;;;;7.88;4.03;;;;;;;;;;5012133;28;20060;-56
2023/04/23 06:47:30;;;;;;;9.25;3.78;;;;;;;;;;5009303;28;20038;-55
2023/04/23 06:49:58;;;;;;;9.45;3.58;;;;;;;;;;5025763;28;20519;-57
2023/04/23 06:52:25;;;;;;;9.63;3.88;;;;;;;;;;5008965;28;20034;-57
2023/04/23 06:54:52;;;;;;;7.72;3.95;;;;;;;;;;5009844;28;20076;-56
2023/04/23 06:57:19;;;;;;;8.00;4.25;;;;;;;;;;5011498;28;20442;-55
2023/04/23 06:59:45;;;;;;;8.07;3.92;;;;;;;;;;5008867;28;20060;-56
2023/04/23 07:02:12;;;;;;;9.30;4.25;;;;;;;;;;5012518;28;20867;-58
2023/04/23 07:04:39;;;;;;;8.80;3.97;;;;;;;;;;5011065;28;20060;-56
2023/04/23 07:07:06;;;;;;;9.57;4.53;;;;;;;;;;5012874;28;20045;-58
2023/04/23 07:09:33;;;;;;;10.02;4.25;;;;;;;;;;5009094;28;20030;-54
2023/04/23 07:12:00;;;;;;;8.27;3.88;;;;;;;;;;5012328;28;20045;-55
2023/04/23 07:14:27;;;;;;;7.43;4.00;;;;;;;;;;5009082;28;20127;-57
2023/04/23 07:16:53;;;;;;;7.53;3.85;;;;;;;;;;5025901;28;20046;-54
2023/04/23 07:19:20;;;;;;;11.32;4.22;;;;;;;;;;5009321;28;20779;-55
2023/04/23 07:21:47;;;;;;;12.10;4.32;;;;;;;;;;5008228;28;20046;-55
2023/04/23 07:24:14;;;;;;;8.45;4.45;;;;;;;;;;5008610;28;20101;-54
2023/04/23 07:26:40;;;;;;;7.63;3.95;;;;;;;;;;5010650;28;20046;-55
2023/04/23 07:29:09;;;;;;;7.65;4.13;;;;;;;;;;5009963;28;20057;-55
2023/04/23 07:31:36;;;;;;;9.85;4.00;;;;;;;;;;5011325;28;20131;-58
2023/04/23 07:34:03;;;;;;;9.05;4.32;;;;;;;;;;5010826;28;20092;-54
2023/04/23 07:36:30;;;;;;;11.77;4.45;;;;;;;;;;5010939;28;20453;-56
2023/04/23 07:38:57;;;;;;;8.25;4.30;;;;;;;;;;5011004;28;20041;-56
2023/04/23 07:41:24;;;;;;;10.20;4.65;;;;;;;;;;5011132;28;20046;-57
2023/04/23 07:43:51;;;;;;;12.25;4.15;;;;;;;;;;5011152;28;20076;-55
2023/04/23 07:46:18;;;;;;;7.28;4.28;;;;;;;;;;5011715;28;20041;-54
2023/04/23 07:48:45;;;;;;;7.95;4.15;;;;;;;;;;5008640;28;20104;-54
2023/04/23 07:51:12;;;;;;;6.22;3.67;;;;;;;;;;5009653;28;20129;-54
2023/04/23 07:53:39;;;;;;;7.95;3.78;;;;;;;;;;5007388;28;20148;-53
2023/04/23 07:56:05;;;;;;;9.75;3.92;;;;;;;;;;5009497;28;20034;-56
2023/04/23 07:58:32;;;;;;;8.70;4.10;;;;;;;;;;5021665;28;20034;-54
2023/04/23 08:00:59;;;;;;;8.98;3.92;;;;;;;;;;5008448;28;20048;-51
2023/04/23 08:03:26;;;;;;;6.60;3.70;;;;;;;;;;5007476;28;20064;-57
2023/04/23 08:05:52;;;;;;;7.65;3.83;;;;;;;;;;5010503;28;20151;-55
2023/04/23 08:08:20;;;;;;;8.88;4.38;;;;;;;;;;5008704;28;20068;-56
2023/04/23 08:10:46;;;;;;;11.77;4.25;;;;;;;;;;5008540;28;20561;-56
2023/04/23 08:13:13;;;;;;;7.53;3.90;;;;;;;;;;5010044;28;20053;-56
2023/04/23 08:15:40;;;;;;;7.82;3.95;;;;;;;;;;5009156;28;20038;-55
2023/04/23 08:18:06;;;;;;;8.50;4.40;;;;;;;;;;5008883;28;20136;-53
2023/04/23 08:20:34;;;;;;;9.45;4.25;;;;;;;;;;5009190;28;20033;-55
2023/04/23 08:23:00;;;;;;;8.75;4.00;;;;;;;;;;5011573;28;20324;-58
2023/04/23 08:25:27;;;;;;;8.65;4.00;;;;;;;;;;5009785;28;20045;-55
2023/04/23 08:27:53;;;;;;;7.28;3.83;;;;;;;;;;5018137;28;20179;-54
2023/04/23 08:30:20;;;;;;;7.90;4.22;;;;;;;;;;5022957;28;20044;-57
2023/04/23 08:32:50;;;;;;;7.80;4.03;;;;;;;;;;5016974;28;20749;-56
2023/04/23 08:35:17;;;;;;;8.52;4.13;;;;;;;;;;5010593;28;20042;-53
2023/04/23 08:37:43;;;;;;;8.35;4.18;;;;;;;;;;5009158;28;20044;-52
2023/04/23 08:40:10;;;;;;;7.20;4.30;;;;;;;;;;5007835;28;20115;-56
2023/04/23 08:42:37;;;;;;;7.95;4.43;;;;;;;;;;5007801;28;20049;-56
2023/04/23 08:45:04;;;;;;;8.85;4.35;;;;;;;;;;5008705;28;20054;-54
2023/04/23 08:47:32;;;;;;;12.25;4.47;;;;;;;;;;5008657;28;20521;-58
2023/04/23 08:50:01;;;;;;;9.40;4.32;;;;;;;;;;5009181;28;20107;-56
2023/04/23 08:52:29;;;;;;;9.85;4.35;;;;;;;;;;5008852;28;20041;-52
2023/04/23 08:54:59;;;;;;;12.10;4.70;;;;;;;;;;5009907;28;20057;-57
2023/04/23 08:57:26;;;;;;;9.35;4.22;;;;;;;;;;5007800;28;20053;-55
2023/04/23 08:59:54;;;;;;;8.88;4.18;;;;;;;;;;5009198;28;20044;-55
2023/04/23 09:02:21;;;;;;;7.85;4.10;;;;;;;;;;5008533;28;20104;-55
2023/04/23 09:04:48;;;;;;;11.80;4.13;;;;;;;;;;5024658;28;20058;-56
2023/04/23 09:07:14;;;;;;;7.57;3.85;;;;;;;;;;5005417;28;20045;-56
2023/04/23 09:09:41;;;;;;;8.93;4.25;;;;;;;;;;5005849;28;20214;-56
2023/04/23 09:12:09;;;;;;;8.35;4.70;;;;;;;;;;5007642;28;20065;-56
2023/04/23 09:14:36;;;;;;;10.05;4.55;;;;;;;;;;5007176;28;20041;-54
2023/04/23 09:17:03;;;;;;;7.57;4.20;;;;;;;;;;5008084;28;20045;-54
2023/04/23 09:19:30;;;;;;;10.60;4.50;;;;;;;;;;5024145;28;20037;-56
2023/04/23 09:22:00;;;;;;;8.75;4.60;;;;;;;;;;5009821;28;20683;-56
2023/04/23 09:24:27;;;;;;;9.13;4.45;;;;;;;;;;5025418;28;20077;-55
2023/04/23 09:26:54;;;;;;;8.20;4.07;;;;;;;;;;5011985;28;20053;-53
2023/04/23 09:29:22;;;;;;;8.13;4.50;;;;;;;;;;5008380;28;20104;-59
2023/04/23 09:31:50;;;;;;;9.38;4.47;;;;;;;;;;5010733;28;20121;-52
2023/04/23 09:34:20;;;;;;;10.15;4.10;;;;;;;;;;5024720;28;20038;-53
2023/04/23 09:36:49;;;;;;;10.65;5.10;;;;;;;;;;5010492;28;20130;-55
2023/04/23 09:39:17;;;;;;;8.05;4.38;;;;;;;;;;5008468;28;20037;-58
2023/04/23 09:41:47;;;;;;;7.70;4.07;;;;;;;;;;5009215;28;20562;-53
2023/04/23 09:44:25;;;;;;;10.10;4.30;;;;;;;;;;5011966;28;20056;-56
2023/04/23 09:46:51;;;;;;;8.90;4.43;;;;;;;;;;5012321;28;20085;-53
2023/04/23 09:49:18;;;;;;;9.70;4.55;;;;;;;;;;5010604;28;20061;-54
2023/04/23 09:51:46;;;;;;;10.60;4.88;;;;;;;;;;5012163;28;20033;-55
2023/04/23 09:54:14;;;;;;;12.05;4.40;;;;;;;;;;5012645;28;20040;-55
2023/04/23 09:56:41;;;;;;;9.50;4.88;;;;;;;;;;5029181;28;20454;-53
2023/04/23 09:59:21;;;;;;;8.23;4.05;;;;;;;;;;5014540;28;20124;-55
2023/04/23 10:01:47;;;;;;;6.90;4.28;;;;;;;;;;5013439;28;20072;-54
2023/04/23 10:04:24;;;;;;;7.65;4.22;;;;;;;;;;5012546;28;20060;-55
2023/04/23 10:06:57;;;;;;;9.07;4.43;;;;;;;;;;5012467;28;20056;-53
2023/04/23 10:09:24;;;;;;;8.05;4.13;;;;;;;;;;5010106;28;20049;-56
2023/04/23 10:11:56;;;;;;;9.52;3.90;;;;;;;;;;5011043;28;20065;-57
2023/04/23 10:14:23;;;;;;;11.02;4.20;;;;;;;;;;5011558;28;20523;-56
2023/04/23 10:16:57;;;;;;;8.60;4.30;;;;;;;;;;5011821;28;20056;-53
2023/04/23 10:19:26;;;;;;;8.25;3.78;;;;;;;;;;5010060;28;20046;-58
2023/04/23 10:21:59;;;;;;;9.55;4.45;;;;;;;;;;5011409;28;20141;-53
2023/04/23 10:24:29;;;;;;;6.88;3.63;;;;;;;;;;5010681;28;20536;-57
2023/04/23 10:26:57;;;;;;;9.02;4.35;;;;;;;;;;5009746;28;20041;-58
2023/04/23 10:29:28;;;;;;;8.18;4.15;;;;;;;;;;5008891;28;20041;-55
2023/04/23 10:31:56;;;;;;;13.05;4.55;;;;;;;;;;5025620;28;20041;-57
2023/04/23 10:34:24;;;;;;;9.02;4.70;;;;;;;;;;5009896;28;20038;-52
2023/04/23 10:36:51;;;;;;;11.43;4.78;;;;;;;;;;5011788;28;20040;-55
2023/04/23 10:39:19;;;;;;;9.48;4.63;;;;;;;;;;5024149;28;20065;-56
2023/04/23 10:41:47;;;;;;;7.90;4.10;;;;;;;;;;5008935;28;20421;-54
2023/04/23 10:44:17;;;;;;;9.32;4.88;;;;;;;;;;5011035;28;20049;-52
2023/04/23 10:46:59;;;;;;;12.60;5.18;;;;;;;;;;5009792;28;20115;-56
2023/04/23 10:49:30;;;;;;;8.82;4.28;;;;;;;;;;5008834;28;20133;-56
2023/04/23 10:52:01;;;;;;;12.90;5.20;;;;;;;;;;5024683;28;20069;-55
2023/04/23 10:54:31;;;;;;;8.38;5.03;;;;;;;;;;5007886;28;20052;-55
2023/04/23 10:57:00;;;;;;;11.13;4.80;;;;;;;;;;5010877;28;20079;-53
2023/04/23 10:59:30;;;;;;;8.48;4.57;;;;;;;;;;5024213;28;20046;-55
2023/04/23 11:01:58;;;;;;;10.48;4.88;;;;;;;;;;5011766;28;20045;-56
2023/04/23 11:04:27;;;;;;;10.85;5.20;;;;;;;;;;5009287;28;20051;-55
2023/04/23 11:06:55;;;;;;;11.88;5.15;;;;;;;;;;5005931;28;20044;-54
2023/04/23 11:09:30;;;;;;;9.57;5.25;;;;;;;;;;5020800;28;20125;-55
2023/04/23 11:11:58;;;;;;;8.73;4.88;;;;;;;;;;5011022;28;20049;-56
2023/04/23 11:14:45;;;;;;;10.65;5.03;;;;;;;;;;5022434;28;20038;-54
2023/04/23 11:17:13;;;;;;;10.75;5.07;;;;;;;;;;5011667;28;20745;-55
2023/04/23 11:19:41;;;;;;;8.32;4.88;;;;;;;;;;5009103;28;20582;-55
2023/04/23 11:22:13;;;;;;;11.60;5.15;;;;;;;;;;5023527;28;20050;-54
2023/04/23 11:24:41;;;;;;;9.43;4.32;;;;;;;;;;5008069;28;20059;-56
2023/04/23 11:27:12;;;;;;;8.27;4.47;;;;;;;;;;5008701;28;20281;-54
2023/04/23 11:29:39;;;;;;;12.05;5.00;;;;;;;;;;5007237;28;20502;-54
2023/04/23 11:32:27;;;;;;;8.85;4.57;;;;;;;;;;5008930;28;20045;-55
2023/04/23 11:34:56;;;;;;;10.93;5.28;;;;;;;;;;5010193;28;20065;-55
2023/04/23 11:37:24;;;;;;;12.50;4.82;;;;;;;;;;5011275;28;20046;-55
2023/04/23 11:39:51;;;;;;;15.93;5.68;;;;;;;;;;5008386;28;20592;-54
2023/04/23 11:42:22;;;;;;;11.13;5.15;;;;;;;;;;5014728;28;20148;-55
2023/04/23 11:44:48;;;;;;;13.15;5.15;;;;;;;;;;5010037;28;20149;-55
2023/04/23 11:47:17;;;;;;;10.10;5.20;;;;;;;;;;5011263;28;20046;-57
2023/04/23 11:49:44;;;;;;;14.02;5.40;;;;;;;;;;5007938;28;20050;-55
2023/04/23 11:52:11;;;;;;;10.65;5.30;;;;;;;;;;5009616;28;20045;-56
2023/04/23 11:54:40;;;;;;;11.88;6.20;;;;;;;;;;5009134;28;21878;-59
2023/04/23 11:57:07;;;;;;;13.68;5.70;;;;;;;;;;5011658;28;20037;-54
2023/04/23 11:59:34;;;;;;;11.57;5.60;;;;;;;;;;5009309;28;20049;-56
2023/04/23 12:02:00;;;;;;;12.18;5.30;;;;;;;;;;5010692;28;20823;-60
2023/04/23 12:04:31;;;;;;;10.93;5.40;;;;;;;;;;5008890;28;20055;-54
2023/04/23 12:06:58;;;;;;;17.30;6.30;;;;;;;;;;5012693;28;21035;-56
2023/04/23 12:09:26;;;;;;;13.27;5.90;;;;;;;;;;5013805;28;20041;-56
2023/04/23 12:11:53;;;;;;;14.30;6.00;;;;;;;;;;5010041;28;20037;-53
2023/04/23 12:14:27;;;;;;;13.63;6.13;;;;;;;;;;5008829;28;20157;-56
2023/04/23 12:16:54;;;;;;;20.38;6.10;;;;;;;;;;5010054;28;20099;-55
2023/04/23 12:19:25;;;;;;;13.63;6.13;;;;;;;;;;5007775;28;20076;-56
2023/04/23 12:21:54;;;;;;;11.18;5.45;;;;;;;;;;5009612;28;21883;-58
2023/04/23 12:24:21;;;;;;;13.13;6.07;;;;;;;;;;5026682;28;20053;-56
2023/04/23 12:26:53;;;;;;;11.88;5.72;;;;;;;;;;5009486;28;20041;-53
2023/04/23 12:29:21;;;;;;;13.38;5.75;;;;;;;;;;5008535;28;20045;-55
2023/04/23 12:31:48;;;;;;;12.82;5.20;;;;;;;;;;5012182;28;20061;-58
2023/04/23 12:34:18;;;;;;;15.80;6.28;;;;;;;;;;5026214;28;20119;-57
2023/04/23 12:36:48;;;;;;;19.20;6.25;;;;;;;;;;5010986;28;20045;-57
2023/04/23 12:39:23;;;;;;;14.32;5.82;;;;;;;;;;5010786;28;20103;-55
2023/04/23 12:41:53;;;;;;;11.90;5.93;;;;;;;;;;5008954;28;20061;-56
2023/04/23 12:44:20;;;;;;;16.20;6.00;;;;;;;;;;5010408;28;20049;-56
2023/04/23 12:46:54;;;;;;;14.18;6.10;;;;;;;;;;5025389;28;20037;-52
2023/04/23 12:49:23;;;;;;;16.48;6.47;;;;;;;;;;5006902;28;20240;-56
2023/04/23 12:51:51;;;;;;;16.25;6.13;;;;;;;;;;5009485;28;20034;-55
2023/04/23 12:54:18;;;;;;;12.93;6.70;;;;;;;;;;5010286;28;20046;-55
2023/04/23 12:56:45;;;;;;;11.18;6.13;;;;;;;;;;5008564;28;20041;-52
2023/04/23 12:59:11;;;;;;;15.52;7.00;;;;;;;;;;5008824;28;20172;-56
2023/04/23 13:01:38;;;;;;;14.27;6.97;;;;;;;;;;5007917;28;20040;-54
2023/04/23 13:04:05;;;;;;;17.85;7.45;;;;;;;;;;5009693;28;20050;-54
2023/04/23 13:06:31;;;;;;;17.10;6.72;;;;;;;;;;5007416;28;20105;-54
2023/04/23 13:09:01;;;;;;;14.10;6.40;;;;;;;;;;5007246;28;20094;-55
2023/04/23 13:11:27;;;;;;;16.95;6.53;;;;;;;;;;5008488;28;20071;-54
2023/04/23 13:13:54;;;;;;;13.43;6.28;;;;;;;;;;5009123;28;20065;-55
2023/04/23 13:16:21;;;;;;;12.68;6.15;;;;;;;;;;5022047;28;20037;-55
2023/04/23 13:18:50;;;;;;;11.48;6.47;;;;;;;;;;5008935;28;20487;-56
2023/04/23 13:21:17;;;;;;;14.57;6.72;;;;;;;;;;5007761;28;20467;-59
2023/04/23 13:23:43;;;;;;;15.00;6.32;;;;;;;;;;5007469;28;20057;-56
2023/04/23 13:26:10;;;;;;;14.48;6.30;;;;;;;;;;5006420;28;20849;-54
2023/04/23 13:28:37;;;;;;;14.32;6.05;;;;;;;;;;5007242;28;20054;-56
2023/04/23 13:31:04;;;;;;;13.52;5.80;;;;;;;;;;5007780;28;20112;-54
2023/04/23 13:33:30;;;;;;;16.50;7.00;;;;;;;;;;5006356;28;20038;-57
2023/04/23 13:35:58;;;;;;;19.15;6.65;;;;;;;;;;5009535;28;20025;-56
2023/04/23 13:38:28;;;;;;;13.70;6.80;;;;;;;;;;5007340;28;20076;-62
2023/04/23 13:40:55;;;;;;;12.40;6.60;;;;;;;;;;5007981;28;20081;-54
2023/04/23 13:43:21;;;;;;;18.42;7.70;;;;;;;;;;5022658;28;20034;-57
2023/04/23 13:45:48;;;;;;;12.82;6.30;;;;;;;;;;5007829;28;20042;-55
2023/04/23 13:48:15;;;;;;;14.63;7.22;;;;;;;;;;5006015;28;20124;-56
2023/04/23 13:50:43;;;;;;;20.90;7.18;;;;;;;;;;5007158;28;20092;-55
2023/04/23 13:53:10;;;;;;;20.50;6.88;;;;;;;;;;5010528;28;20092;-57
2023/04/23 13:55:38;;;;;;;15.35;7.20;;;;;;;;;;5010680;28;20132;-53
2023/04/23 13:58:05;;;;;;;15.10;6.97;;;;;;;;;;5028672;28;20529;-54
2023/04/23 14:00:33;;;;;;;12.57;7.03;;;;;;;;;;5020482;28;20100;-57
2023/04/23 14:02:59;;;;;;;21.48;6.85;;;;;;;;;;5025503;28;20030;-52
2023/04/23 14:05:26;;;;;;;12.63;6.22;;;;;;;;;;5013072;28;20038;-52
2023/04/23 14:07:53;;;;;;;11.30;6.40;;;;;;;;;;5010989;28;20053;-57
2023/04/23 14:10:19;;;;;;;14.38;6.30;;;;;;;;;;5027204;28;20081;-61
2023/04/23 14:12:46;;;;;;;17.00;6.55;;;;;;;;;;5010028;28;20034;-63
2023/04/23 14:15:14;;;;;;;10.70;6.15;;;;;;;;;;5014211;28;20045;-65
2023/04/23 14:17:42;;;;;;;13.98;6.38;;;;;;;;;;5020632;28;20891;-62
2023/04/23 14:20:09;;;;;;;14.73;6.53;;;;;;;;;;5022660;28;20056;-57
2023/04/23 14:22:36;;;;;;;15.02;6.28;;;;;;;;;;5006759;28;20114;-53
2023/04/23 14:25:08;;;;;;;15.77;6.53;;;;;;;;;;5005855;28;20133;-56
2023/04/23 14:27:45;;;;;;;12.68;6.28;;;;;;;;;;5003674;28;20034;-58
2023/04/23 14:30:30;;;;;;;11.77;6.40;;;;;;;;;;5008835;28;20054;-55
2023/04/23 14:32:57;;;;;;;10.98;6.10;;;;;;;;;;5010950;28;20045;-55
2023/04/23 14:35:24;;;;;;;10.88;5.68;;;;;;;;;;5010575;28;20041;-58
2023/04/23 14:37:51;;;;;;;15.95;6.07;;;;;;;;;;5010360;28;20053;-57
2023/04/23 14:40:20;;;;;;;13.75;6.70;;;;;;;;;;5011170;28;20049;-53